createdAt,value
2024-01-15T00:01:53.560Z,98294.31
2024-01-15T00:04:55.584Z,98290.38
2024-01-15T00:07:57.237Z,98290.56
2024-01-15T00:10:59.131Z,98278.66
2024-01-15T00:14:00.933Z,98280.50
2024-01-15T00:17:02.878Z,98276.00
2024-01-15T00:20:05.172Z,98272.81
2024-01-15T00:23:07.004Z,98273.91
2024-01-15T00:26:10.637Z,98272.00
2024-01-15T00:29:13.538Z,98247.41
2024-01-15T00:32:15.509Z,98251.09
2024-01-15T00:35:17.369Z,98261.69
2024-01-15T00:38:19.172Z,98282.84
2024-01-15T00:41:21.052Z,98256.94
2024-01-15T00:44:22.923Z,98278.84
2024-01-15T00:47:24.772Z,98265.09
2024-01-15T00:50:26.508Z,98272.78
2024-01-15T00:53:28.349Z,98273.84
2024-01-15T00:56:29.999Z,98263.53
2024-01-15T00:59:31.837Z,98266.69
2024-01-15T01:02:33.661Z,98260.59
2024-01-15T01:05:36.057Z,98263.25
2024-01-15T01:08:37.820Z,98270.13
2024-01-15T01:11:39.569Z,98250.81
2024-01-15T01:14:41.442Z,98266.44
2024-01-15T01:17:43.276Z,98269.59
2024-01-15T01:20:45.316Z,98258.22
2024-01-15T01:23:47.252Z,98268.56
2024-01-15T01:26:49.088Z,98266.75
2024-01-15T01:29:50.862Z,98267.28
2024-01-15T01:32:52.632Z,98274.16
2024-01-15T01:35:54.491Z,98280.28
2024-01-15T01:38:56.381Z,98279.22
2024-01-15T01:41:58.054Z,98285.56
2024-01-15T01:44:59.845Z,98287.94
2024-01-15T01:48:02.890Z,98271.28
2024-01-15T01:51:05.959Z,98267.34
2024-01-15T01:54:10.572Z,98261.00
2024-01-15T01:57:13.866Z,98276.34
2024-01-15T02:00:16.076Z,98285.88
2024-01-15T02:03:17.995Z,98284.00
2024-01-15T02:06:20.375Z,98268.13
2024-01-15T02:09:22.527Z,98283.75
2024-01-15T02:12:24.344Z,98279.81
2024-01-15T02:15:26.177Z,98265.25
2024-01-15T02:18:28.136Z,98273.44
2024-01-15T02:21:30.251Z,98271.31
2024-01-15T02:24:32.445Z,98271.59
2024-01-15T02:27:34.300Z,98264.94
2024-01-15T02:30:40.747Z,98271.31
2024-01-15T02:33:43.813Z,98257.56
2024-01-15T02:36:45.828Z,98276.09
2024-01-15T02:39:47.713Z,98269.72
2024-01-15T02:42:49.709Z,98261.25
2024-01-15T02:45:51.531Z,98242.22
2024-01-15T02:48:53.496Z,98268.63
2024-01-15T02:51:55.343Z,98268.91
2024-01-15T02:54:57.198Z,98259.63
2024-01-15T02:58:00.608Z,98259.63
2024-01-15T03:01:02.697Z,98251.69
2024-01-15T03:04:04.991Z,98260.16
2024-01-15T03:07:07.076Z,98256.19
2024-01-15T03:10:09.407Z,98253.28
2024-01-15T03:13:11.232Z,98267.28
2024-01-15T03:16:13.052Z,98257.00
2024-01-15T03:19:14.934Z,98247.75
2024-01-15T03:22:17.558Z,98265.72
2024-01-15T03:25:19.410Z,98257.53
2024-01-15T03:28:21.198Z,98250.63
2024-01-15T03:31:23.012Z,98233.97
2024-01-15T03:34:24.815Z,98218.09
2024-01-15T03:37:26.628Z,98201.16
2024-01-15T03:40:28.532Z,98219.09
2024-01-15T03:43:30.430Z,98232.06
2024-01-15T03:46:32.390Z,98205.63
2024-01-15T03:49:34.252Z,98204.84
2024-01-15T03:52:36.116Z,98216.16
2024-01-15T03:55:37.903Z,98212.44
2024-01-15T03:58:39.957Z,98198.09
2024-01-15T04:01:41.945Z,98201.47
2024-01-15T04:04:45.374Z,98190.84
2024-01-15T04:07:47.390Z,98185.69
2024-01-15T04:10:49.320Z,98190.47
2024-01-15T04:13:51.286Z,98197.88
2024-01-15T04:16:53.171Z,98188.88
2024-01-15T04:19:54.969Z,98190.50
2024-01-15T04:22:56.932Z,98177.25
2024-01-15T04:25:58.593Z,98184.41
2024-01-15T04:29:00.778Z,98190.47
2024-01-15T04:32:02.713Z,98187.53
2024-01-15T04:35:04.894Z,98182.16
2024-01-15T04:38:06.617Z,98176.34
2024-01-15T04:41:14.436Z,98159.13
2024-01-15T04:44:16.470Z,98178.06
2024-01-15T04:47:18.316Z,98181.81
2024-01-15T04:50:20.029Z,98178.47
2024-01-15T04:53:21.807Z,98179.78
2024-01-15T04:56:23.676Z,98158.38
2024-01-15T04:59:25.540Z,98152.78
2024-01-15T05:02:27.308Z,98173.03
2024-01-15T05:05:29.042Z,98152.06
2024-01-15T05:08:30.950Z,98153.81
2024-01-15T05:11:35.808Z,98148.75
2024-01-15T05:14:37.765Z,98148.47
2024-01-15T05:17:39.892Z,98138.88
2024-01-15T05:20:41.785Z,98138.50
2024-01-15T05:23:43.522Z,98122.31
2024-01-15T05:26:45.198Z,98133.91
2024-01-15T05:29:47.011Z,98115.44
2024-01-15T05:32:48.968Z,98126.66
2024-01-15T05:35:51.571Z,98129.31
2024-01-15T05:38:53.699Z,98130.16
2024-01-15T05:41:55.433Z,98116.66
2024-01-15T05:44:57.385Z,98122.16
2024-01-15T05:47:59.892Z,98119.03
2024-01-15T05:51:01.642Z,98125.91
2024-01-15T05:54:03.446Z,98121.97
2024-01-15T05:57:05.462Z,98127.06
2024-01-15T06:00:07.970Z,98102.09
2024-01-15T06:03:09.843Z,98091.13
2024-01-15T06:06:11.691Z,98084.53
2024-01-15T06:09:13.671Z,98078.13
2024-01-15T06:12:15.527Z,98078.09
2024-01-15T06:15:17.302Z,98065.38
2024-01-15T06:18:19.138Z,98065.66
2024-01-15T06:21:21.036Z,98074.91
2024-01-15T06:24:22.817Z,98083.03
2024-01-15T06:27:24.674Z,98077.44
2024-01-15T06:30:26.571Z,98077.25
2024-01-15T06:33:28.464Z,98043.66
2024-01-15T06:36:30.441Z,98057.84
2024-01-15T06:39:32.669Z,98036.91
2024-01-15T06:42:34.531Z,98059.09
2024-01-15T06:45:36.290Z,98039.25
2024-01-15T06:48:38.358Z,98056.66
2024-01-15T06:51:40.476Z,98061.97
2024-01-15T06:54:42.490Z,98069.94
2024-01-15T06:57:44.439Z,98058.03
2024-01-15T07:00:46.529Z,98062.97
2024-01-15T07:03:48.443Z,98050.75
2024-01-15T07:06:50.351Z,98053.13
2024-01-15T07:09:53.405Z,98059.16
2024-01-15T07:12:55.418Z,98062.81
2024-01-15T07:15:57.592Z,98065.75
2024-01-15T07:18:59.439Z,98057.16
2024-01-15T07:22:01.515Z,98069.91
2024-01-15T07:25:03.546Z,98074.44
2024-01-15T07:28:05.704Z,98072.34
2024-01-15T07:31:07.760Z,98088.53
2024-01-15T07:34:10.010Z,98068.41
2024-01-15T07:37:12.870Z,98081.34
2024-01-15T07:40:14.772Z,98084.00
2024-01-15T07:43:16.868Z,98083.50
2024-01-15T07:46:18.599Z,98076.31
2024-01-15T07:49:20.418Z,98074.94
2024-01-15T07:52:22.395Z,98081.13
2024-01-15T07:55:24.961Z,98080.94
2024-01-15T07:58:26.893Z,98083.09
2024-01-15T08:01:28.857Z,98086.59
2024-01-15T08:04:30.877Z,98085.50
2024-01-15T08:07:32.707Z,98087.88
2024-01-15T08:10:34.302Z,98089.19
2024-01-15T08:13:36.024Z,98077.25
2024-01-15T08:16:38.865Z,98077.91
2024-01-15T08:19:42.543Z,98075.25
2024-01-15T08:22:44.352Z,98086.59
2024-01-15T08:25:46.104Z,98085.59
2024-01-15T08:28:47.833Z,98099.31
2024-01-15T08:31:49.818Z,98113.31
2024-01-15T08:34:53.479Z,98100.97
2024-01-15T08:37:55.340Z,98106.38
2024-01-15T08:40:59.991Z,98098.50
2024-01-15T08:44:01.729Z,98093.03
2024-01-15T08:47:04.164Z,98094.44
2024-01-15T08:50:06.765Z,98094.22
2024-01-15T08:53:08.450Z,98094.56
2024-01-15T08:56:10.227Z,98099.94
2024-01-15T08:59:12.453Z,98104.03
2024-01-15T09:02:14.211Z,98106.69
2024-01-15T09:05:16.351Z,98111.91
2024-01-15T09:08:18.208Z,98108.41
2024-01-15T09:11:19.930Z,98100.41
2024-01-15T09:14:32.989Z,98110.34
2024-01-15T09:17:38.596Z,98088.59
2024-01-15T09:20:40.475Z,98102.38
2024-01-15T09:23:42.251Z,98117.22
2024-01-15T09:26:43.991Z,98104.59
2024-01-15T09:29:47.410Z,98094.09
2024-01-15T09:32:49.817Z,98086.75
2024-01-15T09:35:51.603Z,98105.06
2024-01-15T09:38:53.319Z,98103.75
2024-01-15T09:41:55.694Z,98108.16
2024-01-15T09:44:57.414Z,98103.03
2024-01-15T09:47:59.198Z,98098.25
2024-01-15T09:51:02.747Z,98093.41
2024-01-15T09:54:05.261Z,98090.91
2024-01-15T09:57:07.423Z,98097.19
2024-01-15T10:00:12.469Z,98086.22
2024-01-15T10:03:14.877Z,98069.53
2024-01-15T10:06:22.291Z,98079.16
2024-01-15T10:09:24.918Z,98081.75
2024-01-15T10:12:28.524Z,98077.81
2024-01-15T10:15:30.561Z,98073.38
2024-01-15T10:18:32.439Z,98083.91
2024-01-15T10:21:37.441Z,98073.06
2024-01-15T10:24:39.907Z,98067.75
2024-01-15T10:27:45.477Z,98068.75
2024-01-15T10:30:47.341Z,98064.72
2024-01-15T10:33:50.241Z,98059.09
2024-01-15T10:36:56.840Z,98051.34
2024-01-15T10:39:58.993Z,98053.69
2024-01-15T10:43:00.881Z,98057.56
2024-01-15T10:46:03.802Z,98043.25
2024-01-15T10:49:06.104Z,98041.16
2024-01-15T10:52:07.922Z,98058.00
2024-01-15T10:55:14.605Z,98057.72
2024-01-15T10:58:19.812Z,98059.09
2024-01-15T11:01:22.150Z,98038.41
2024-01-15T11:04:25.305Z,98051.13
2024-01-15T11:07:29.345Z,98054.28
2024-01-15T11:10:47.553Z,98052.91
2024-01-15T11:13:52.729Z,98052.63
2024-01-15T11:17:02.308Z,98044.38
2024-01-15T11:20:07.967Z,98050.34
2024-01-15T11:23:10.902Z,98024.25
2024-01-15T11:26:32.094Z,98041.41
2024-01-15T11:29:38.439Z,98032.34
2024-01-15T11:32:44.288Z,98042.41
2024-01-15T11:35:50.575Z,98039.34
2024-01-15T11:38:52.244Z,98023.78
2024-01-15T11:42:02.442Z,98043.84
2024-01-15T11:45:05.667Z,98028.00
2024-01-15T11:48:13.271Z,98030.94
2024-01-15T11:51:19.498Z,98028.00
2024-01-15T11:54:25.149Z,98036.69
2024-01-15T11:57:50.725Z,98038.41
2024-01-15T12:00:54.149Z,98035.75
2024-01-15T12:03:56.310Z,98034.31
2024-01-15T12:06:58.286Z,98034.59
2024-01-15T12:10:00.193Z,98042.81
2024-01-15T12:13:07.741Z,98044.38
2024-01-15T12:16:09.671Z,98023.47
2024-01-15T12:19:11.647Z,98026.63
2024-01-15T12:22:13.382Z,98021.09
2024-01-15T12:25:15.206Z,98032.75
2024-01-15T12:28:17.144Z,98035.69
2024-01-15T12:31:20.502Z,98031.44
2024-01-15T12:34:22.427Z,98031.94
2024-01-15T12:37:26.297Z,98030.44
2024-01-15T12:40:29.133Z,98040.88
2024-01-15T12:43:30.894Z,98028.72
2024-01-15T12:46:32.795Z,98043.06
2024-01-15T12:49:36.963Z,98034.38
2024-01-15T12:52:40.918Z,98033.59
2024-01-15T12:55:42.641Z,98036.13
2024-01-15T12:58:44.287Z,98034.75
2024-01-15T13:01:47.730Z,98033.28
2024-01-15T13:04:49.626Z,98042.28
2024-01-15T13:07:51.366Z,98048.34
2024-01-15T13:10:57.173Z,98051.88
2024-01-15T13:13:59.044Z,98058.25
2024-01-15T13:17:00.859Z,98056.97
2024-01-15T13:20:03.621Z,98063.66
2024-01-15T13:23:05.543Z,98063.94
2024-01-15T13:26:08.166Z,98072.94
2024-01-15T13:29:09.813Z,98070.56
2024-01-15T13:32:17.997Z,98071.41
2024-01-15T13:35:19.681Z,98072.16
2024-01-15T13:38:21.324Z,98080.41
2024-01-15T13:41:26.266Z,98089.22
2024-01-15T13:44:28.785Z,98074.38
2024-01-15T13:47:30.439Z,98078.59
2024-01-15T13:50:41.142Z,98087.66
2024-01-15T13:53:42.850Z,98096.91
2024-01-15T13:56:44.686Z,98080.00
2024-01-15T13:59:46.797Z,98095.31
2024-01-15T14:02:49.150Z,98104.06
2024-01-15T14:05:52.182Z,98100.63
2024-01-15T14:08:53.837Z,98109.91
2024-01-15T14:11:55.813Z,98106.78
2024-01-15T14:14:57.566Z,98109.78
2024-01-15T14:18:00.196Z,98132.97
2024-01-15T14:21:01.961Z,98125.59
2024-01-15T14:24:05.576Z,98127.41
2024-01-15T14:27:08.321Z,98121.34
2024-01-15T14:30:10.784Z,98135.88
2024-01-15T14:33:12.652Z,98136.19
2024-01-15T14:36:14.589Z,98162.63
2024-01-15T14:39:16.415Z,98165.28
2024-01-15T14:42:18.139Z,98170.31
2024-01-15T14:45:20.347Z,98174.06
2024-01-15T14:48:22.169Z,98174.00
2024-01-15T14:51:23.955Z,98192.84
2024-01-15T14:54:25.903Z,98199.97
2024-01-15T14:57:27.752Z,98181.59
2024-01-15T15:00:29.524Z,98213.03
2024-01-15T15:03:31.544Z,98220.72
2024-01-15T15:06:33.820Z,98214.34
2024-01-15T15:09:35.767Z,98206.94
2024-01-15T15:12:37.661Z,98195.63
2024-01-15T15:15:39.447Z,98227.06
2024-01-15T15:18:41.234Z,98210.94
2024-01-15T15:21:43.102Z,98205.06
2024-01-15T15:24:45.337Z,98228.34
2024-01-15T15:27:47.147Z,98228.41
2024-01-15T15:30:48.888Z,98249.56
2024-01-15T15:33:50.853Z,98247.66
2024-01-15T15:36:52.776Z,98237.06
2024-01-15T15:39:54.527Z,98246.91
2024-01-15T15:42:56.423Z,98247.41
2024-01-15T15:46:01.482Z,98256.44
2024-01-15T15:49:07.836Z,98260.19
2024-01-15T15:52:09.961Z,98267.34
2024-01-15T15:55:11.753Z,98277.44
2024-01-15T15:58:13.507Z,98270.28
2024-01-15T16:01:15.372Z,98292.59
2024-01-15T16:04:17.316Z,98291.03
2024-01-15T16:07:19.166Z,98294.50
2024-01-15T16:10:20.971Z,98298.00
2024-01-15T16:13:22.756Z,98308.00
2024-01-15T16:23:10.982Z,98303.94
2024-01-15T16:23:27.118Z,98318.22
2024-01-15T16:23:59.985Z,98321.91
2024-01-15T16:26:31.442Z,98330.16
2024-01-15T16:29:33.292Z,98305.88
2024-01-15T16:32:35.373Z,98324.19
2024-01-15T16:35:37.340Z,98337.72
2024-01-15T16:38:39.482Z,98328.00
2024-01-15T16:41:41.363Z,98354.75
2024-01-15T16:44:43.138Z,98356.84
2024-01-15T16:47:44.932Z,98355.03
2024-01-15T16:50:46.884Z,98371.75
2024-01-15T16:53:48.633Z,98364.06
2024-01-15T16:56:50.832Z,98378.88
2024-01-15T16:59:52.576Z,98377.28
2024-01-15T17:02:54.845Z,98379.97
2024-01-15T17:05:56.504Z,98384.97
2024-01-15T17:08:58.428Z,98383.50
2024-01-15T17:12:00.174Z,98384.81
2024-01-15T17:15:01.883Z,98391.75
2024-01-15T17:18:04.530Z,98369.28
2024-01-15T17:21:07.133Z,98394.75
2024-01-15T17:24:08.932Z,98387.13
2024-01-15T17:27:10.586Z,98380.50
2024-01-15T17:30:12.818Z,98398.25
2024-01-15T17:33:15.003Z,98395.66
2024-01-15T17:36:16.819Z,98396.19
2024-01-15T17:39:19.221Z,98407.06
2024-01-15T17:42:20.907Z,98417.94
2024-01-15T17:45:22.961Z,98406.78
2024-01-15T17:48:26.060Z,98405.19
2024-01-15T17:51:27.815Z,98416.81
2024-01-15T17:54:31.232Z,98429.28
2024-01-15T17:57:32.886Z,98433.78
2024-01-15T18:00:35.179Z,98431.91
2024-01-15T18:03:36.944Z,98449.66
2024-01-15T18:06:38.745Z,98446.66
2024-01-15T18:09:40.578Z,98459.63
2024-01-15T18:12:42.312Z,98463.31
2024-01-15T18:15:43.970Z,98458.00
2024-01-15T18:18:46.394Z,98449.81
2024-01-15T18:21:48.696Z,98447.50
2024-01-15T18:24:50.460Z,98483.22
2024-01-15T18:27:52.260Z,98460.19
2024-01-15T18:30:53.987Z,98491.22
2024-01-15T18:33:55.875Z,98485.94
2024-01-15T18:36:57.586Z,98494.94
2024-01-15T18:39:59.246Z,98463.22
2024-01-15T18:43:01.489Z,98502.44
2024-01-15T18:46:08.784Z,98506.19
2024-01-15T18:49:11.556Z,98515.47
2024-01-15T18:52:13.301Z,98475.47
2024-01-15T18:55:15.257Z,98516.56
2024-01-15T18:58:17.797Z,98511.53
2024-01-15T19:01:30.569Z,98509.34
2024-01-15T19:04:32.329Z,98521.56
2024-01-15T19:07:34.372Z,98520.47
2024-01-15T19:10:36.289Z,98527.63
2024-01-15T19:13:38.297Z,98532.38
2024-01-15T19:16:40.040Z,98538.75
2024-01-15T19:19:42.291Z,98546.47
2024-01-15T19:22:43.979Z,98536.94
2024-01-15T19:25:45.954Z,98536.66
2024-01-15T19:28:48.629Z,98546.19
2024-01-15T19:31:50.430Z,98537.19
2024-01-15T19:34:52.748Z,98525.53
2024-01-15T19:37:54.479Z,98534.03
2024-01-15T19:40:56.085Z,98538.78
2024-01-15T19:43:57.855Z,98533.50
2024-01-15T19:46:59.644Z,98531.34
2024-01-15T19:50:01.336Z,98543.53
2024-01-15T19:53:03.137Z,98543.00
2024-01-15T19:56:05.105Z,98557.31
2024-01-15T19:59:07.227Z,98550.91
2024-01-15T20:02:08.981Z,98548.28
2024-01-15T20:05:11.362Z,98559.38
2024-01-15T20:08:13.220Z,98555.41
2024-01-15T20:11:15.225Z,98556.16
2024-01-15T20:14:17.038Z,98545.06
2024-01-15T20:17:18.932Z,98559.38
2024-01-15T20:20:20.927Z,98559.91
2024-01-15T20:23:22.725Z,98564.69
2024-01-15T20:26:25.463Z,98559.94
2024-01-15T20:29:27.225Z,98570.81
2024-01-15T20:32:29.031Z,98568.41
2024-01-15T20:35:30.825Z,98540.88
2024-01-15T20:38:33.047Z,98570.00
2024-01-15T20:41:35.082Z,98578.22
2024-01-15T20:44:36.864Z,98552.81
2024-01-15T20:47:39.061Z,98566.31
2024-01-15T20:50:40.825Z,98562.31
2024-01-15T20:53:43.350Z,98579.81
2024-01-15T20:56:45.507Z,98568.41
2024-01-15T20:59:50.411Z,98580.84
2024-01-15T21:02:53.897Z,98583.28
2024-01-15T21:05:55.758Z,98572.94
2024-01-15T21:08:57.525Z,98573.19
2024-01-15T21:11:59.187Z,98572.19
2024-01-15T21:15:01.101Z,98592.28
2024-01-15T21:18:04.708Z,98572.16
2024-01-15T21:21:06.855Z,98581.16
2024-01-15T21:24:09.422Z,98579.53
2024-01-15T21:27:11.368Z,98581.16
2024-01-15T21:30:15.871Z,98588.84
2024-01-15T21:33:17.698Z,98593.34
2024-01-15T21:36:19.402Z,98587.53
2024-01-15T21:39:21.162Z,98587.53
2024-01-15T21:42:22.872Z,98612.97
2024-01-15T21:45:24.572Z,98601.59
2024-01-15T21:48:26.577Z,98600.78
2024-01-15T21:51:28.552Z,98614.84
2024-01-15T21:54:30.261Z,98600.78
2024-01-15T21:57:32.208Z,98614.84
2024-01-15T22:00:35.193Z,98603.44
2024-01-15T22:03:37.230Z,98619.66
2024-01-15T22:06:39.057Z,98610.88
2024-01-15T22:09:41.641Z,98619.09
2024-01-15T22:12:43.343Z,98628.38
2024-01-15T22:15:45.085Z,98624.66
2024-01-15T22:18:48.107Z,98638.19
2024-01-15T22:21:50.352Z,98640.59
2024-01-15T22:24:52.195Z,98654.38
2024-01-15T22:27:54.061Z,98638.47
2024-01-15T22:30:55.741Z,98642.69
2024-01-15T22:33:57.546Z,98657.84
2024-01-15T22:36:59.556Z,98640.88
2024-01-15T22:40:01.294Z,98640.34
2024-01-15T22:43:03.326Z,98652.81
2024-01-15T22:46:05.323Z,98647.50
2024-01-15T22:49:07.215Z,98665.53
2024-01-15T22:52:09.517Z,98676.16
2024-01-15T22:55:11.781Z,98673.50
2024-01-15T22:58:13.592Z,98677.22
2024-01-15T23:01:15.332Z,98687.56
2024-01-15T23:04:17.184Z,98678.00
2024-01-15T23:07:18.965Z,98679.59
2024-01-15T23:10:20.939Z,98689.41
2024-01-15T23:13:22.913Z,98695.25
2024-01-15T23:16:24.906Z,98703.22
2024-01-15T23:19:26.640Z,98698.94
2024-01-15T23:22:28.344Z,98703.47
2024-01-15T23:25:30.012Z,98708.50
2024-01-15T23:28:32.880Z,98703.47
2024-01-15T23:31:34.766Z,98704.81
2024-01-15T23:34:36.738Z,98700.53
2024-01-15T23:37:39.359Z,98704.81
2024-01-15T23:40:41.080Z,98697.13
2024-01-15T23:43:42.833Z,98696.31
2024-01-15T23:46:44.488Z,98703.75
2024-01-15T23:49:46.239Z,98691.78
2024-01-15T23:52:47.908Z,98696.31
2024-01-15T23:55:49.669Z,98700.28
2024-01-15T23:58:51.372Z,98702.16
